sensor_id;sensor_type;location;lat;lon;timestamp;pressure;altitude;pressure_sealevel;temperature;humidity
46382;BME280;66809;52.974;-2.514;2023-02-23T00:01:48;1010.6760198636815;;;1.617160638251968;43.837821695213805
46382;BME280;66809;52.974;-2.514;2023-02-23T00:03:47;1010.6945383343922;;;1.6377219752931458;43.83059902455016
46382;BME280;66809;52.974;-2.514;2023-02-23T00:05:47;1010.712853113601;;;1.647996021693051;43.813334215189975
46382;BME280;66809;52.974;-2.514;2023-02-23T00:07:47;1010.7294083811355;;;1.6542395366946785;43.76752488981608
46382;BME280;66809;52.974;-2.514;2023-02-23T00:09:47;1010.747778783225;;;1.6646485592280653;43.75896530132767
46382;BME280;66809;52.974;-2.514;2023-02-23T00:11:47;1010.7648208582824;;;1.6821740083233065;43.747647330323254
46382;BME280;66809;52.974;-2.514;2023-02-23T00:13:49;1010.7815626804924;;;1.699731254351146;43.71025691948362
46382;BME280;66809;52.974;-2.514;2023-02-23T00:15:47;1010.7970545107995;;;1.692733759059916;43.65794346617458
46382;BME280;66809;52.974;-2.514;2023-02-23T00:17:47;1010.8129089135065;;;1.690386115935488;43.63142247899107
46382;BME280;66809;52.974;-2.514;2023-02-23T00:19:47;1010.8285535721112;;;1.6835865860757344;43.61910330951486
46382;BME280;66809;52.974;-2.514;2023-02-23T00:21:47;1010.844612412299;;;1.673316552693224;43.59950180129472
46382;BME280;66809;52.974;-2.514;2023-02-23T00:23:49;1010.8598888686059;;;1.652438888832715;43.575513390854944
46382;BME280;66809;52.974;-2.514;2023-02-23T00:25:47;1010.8750244081338;;;1.637855086461387;43.6247519034627
46382;BME280;66809;52.974;-2.514;2023-02-23T00:27:47;1010.8881424016776;;;1.630349723987428;43.67515209064297
46382;BME280;66809;52.974;-2.514;2023-02-23T00:29:48;1010.9007224900992;;;1.6220019912884438;43.697872251713235
46382;BME280;66809;52.974;-2.514;2023-02-23T00:31:47;1010.914069292352;;;1.616539382247663;43.70334407588665
46382;BME280;66809;52.974;-2.514;2023-02-23T00:33:47;1010.9294364605698;;;1.5910010441150544;43.67153281284809
46382;BME280;66809;52.974;-2.514;2023-02-23T00:35:47;1010.9455840860594;;;1.5765809065846454;43.704910771131566
46382;BME280;66809;52.974;-2.514;2023-02-23T00:37:48;1010.9609665179584;;;1.556723477841529;43.67864879233571
46382;BME280;66809;52.974;-2.514;2023-02-23T00:39:47;1010.9762697726034;;;1.5414815997112383;43.727888163213265
46382;BME280;66809;52.974;-2.514;2023-02-23T00:41:48;1010.9899637160652;;;1.5202572836147434;43.75015263767185
46382;BME280;66809;52.974;-2.514;2023-02-23T00:43:47;1011.0045639829503;;;1.4879965700205715;43.75035456847494
46382;BME280;66809;52.974;-2.514;2023-02-23T00:45:47;1011.0184493181772;;;1.4621656066101387;43.78397093940835
46382;BME280;66809;52.974;-2.514;2023-02-23T00:47:47;1011.0323622934652;;;1.4483515238029454;43.87553621548111
46382;BME280;66809;52.974;-2.514;2023-02-23T00:49:47;1011.0441935501447;;;1.4325095211489596;43.92477429893695
46382;BME280;66809;52.974;-2.514;2023-02-23T00:51:47;1011.0558190686403;;;1.4230812179890941;43.956673657395314
46382;BME280;66809;52.974;-2.514;2023-02-23T00:53:47;1011.0679612467801;;;1.4161466670394514;43.981720988363044
46382;BME280;66809;52.974;-2.514;2023-02-23T00:55:47;1011.0797548286978;;;1.4052387447281436;44.012369727608686
46382;BME280;66809;52.974;-2.514;2023-02-23T00:57:47;1011.0901788010649;;;1.3843916806166219;44.03346747475569
46382;BME280;66809;52.974;-2.514;2023-02-23T00:59:47;1011.1003847685139;;;1.369434702518172;44.057121184272624
46382;BME280;66809;52.974;-2.514;2023-02-23T01:01:47;1011.1099683930818;;;1.36806281047993;44.08536033228549
46382;BME280;66809;52.974;-2.514;2023-02-23T01:03:47;1011.1192054890942;;;1.3509738002939429;44.13181585457696
46382;BME280;66809;52.974;-2.514;2023-02-23T01:05:47;1011.1283274172562;;;1.3342286143744453;44.18103747588004
46382;BME280;66809;52.974;-2.514;2023-02-23T01:07:47;1011.138958702274;;;1.312659977267163;44.228418412618716
46382;BME280;66809;52.974;-2.514;2023-02-23T01:09:47;1011.1481319377948;;;1.2898455838112504;44.27989308018549
46382;BME280;66809;52.974;-2.514;2023-02-23T01:11:47;1011.158098930335;;;1.2739431261159655;44.33179619326432
46382;BME280;66809;52.974;-2.514;2023-02-23T01:13:48;1011.1676329435006;;;1.243219405026551;44.392964349548
46382;BME280;66809;52.974;-2.514;2023-02-23T01:15:47;1011.1772922672619;;;1.2167785911443287;44.457866688460825
46382;BME280;66809;52.974;-2.514;2023-02-23T01:17:47;1011.1863361481885;;;1.1870124609271429;44.50370486468865
46382;BME280;66809;52.974;-2.514;2023-02-23T01:19:47;1011.1962929903527;;;1.1583583975706693;44.55454900188149
46382;BME280;66809;52.974;-2.514;2023-02-23T01:21:47;1011.2057126518498;;;1.132546225082602;44.61338988861657
46382;BME280;66809;52.974;-2.514;2023-02-23T01:23:47;1011.2147763585293;;;1.1127730174017896;44.67728570491527
46382;BME280;66809;52.974;-2.514;2023-02-23T01:25:47;1011.2236451167224;;;1.0983252318396415;44.73493861334531
46382;BME280;66809;52.974;-2.514;2023-02-23T01:27:47;1011.2329810212799;;;1.0785288549305794;44.77284328845726
46382;BME280;66809;52.974;-2.514;2023-02-23T01:29:47;1011.2420345186049;;;1.0592582252770508;44.82028355775213
46382;BME280;66809;52.974;-2.514;2023-02-23T01:31:48;1011.2507988024312;;;1.0476291404206886;44.881910978881635
46382;BME280;66809;52.974;-2.514;2023-02-23T01:33:52;1011.2592588101312;;;1.035794614038315;44.931827063181466
46382;BME280;66809;52.974;-2.514;2023-02-23T01:35:56;1011.2662502566614;;;1.029439950407333;44.964538855950636
46382;BME280;66809;52.974;-2.514;2023-02-23T01:37:47;1011.2733050581463;;;1.0204895943462753;45.01030679023286
46382;BME280;66809;52.974;-2.514;2023-02-23T01:39:47;1011.2807520502527;;;1.0058703122199744;45.003436730100475
46382;BME280;66809;52.974;-2.514;2023-02-23T01:41:48;1011.289488346226;;;0.9926339871155763;45.039830390302946
46382;BME280;66809;52.974;-2.514;2023-02-23T01:44:02;1011.2978483500683;;;0.9779844451353534;45.06175593737317
46382;BME280;66809;52.974;-2.514;2023-02-23T01:45:47;1011.3063377163799;;;0.959728506593362;45.06912357022716
46382;BME280;66809;52.974;-2.514;2023-02-23T01:47:47;1011.3144406727021;;;0.942584914733456;45.05850531042003
46382;BME280;66809;52.974;-2.514;2023-02-23T01:49:47;1011.3237486722547;;;0.9176453231843228;45.07116410712236
46382;BME280;66809;52.974;-2.514;2023-02-23T01:51:50;1011.3318833587783;;;0.8978998811486122;45.09684746808365
46382;BME280;66809;52.974;-2.514;2023-02-23T01:53:50;1011.3411827647377;;;0.8704927999918362;45.102885412198056
46382;BME280;66809;52.974;-2.514;2023-02-23T01:55:48;1011.351552554766;;;0.8521991718966128;45.11865601160009
46382;BME280;66809;52.974;-2.514;2023-02-23T01:57:47;1011.3630174064165;;;0.8436321676169629;45.13986897693849
46382;BME280;66809;52.974;-2.514;2023-02-23T01:59:49;1011.3753721083093;;;0.8321337330446901;45.13875294527872
46382;BME280;66809;52.974;-2.514;2023-02-23T02:01:47;1011.388439548352;;;0.8187275241381857;45.1512494900176
46382;BME280;66809;52.974;-2.514;2023-02-23T02:03:50;1011.4015146054818;;;0.7952502678405583;45.131005367690975
46382;BME280;66809;52.974;-2.514;2023-02-23T02:05:47;1011.41496816245;;;0.7851878954347546;45.11571647698893
46382;BME280;66809;52.974;-2.514;2023-02-23T02:07:49;1011.4286590332562;;;0.7825632109803263;45.10408031415033
46382;BME280;66809;52.974;-2.514;2023-02-23T02:09:47;1011.4418018906227;;;0.787355165749752;45.09600179268933
46382;BME280;66809;52.974;-2.514;2023-02-23T02:11:47;1011.4551813581918;;;0.7781027069283579;45.060009281445225
46382;BME280;66809;52.974;-2.514;2023-02-23T02:13:47;1011.467398512704;;;0.7861340610613415;45.05219273318369
46382;BME280;66809;52.974;-2.514;2023-02-23T02:15:59;1011.4772526136107;;;0.794520642990317;45.009933798928984
46382;BME280;66809;52.974;-2.514;2023-02-23T02:17:55;1011.4865337211431;;;0.8008113671980632;44.97003070641507
46382;BME280;66809;52.974;-2.514;2023-02-23T02:20:10;1011.4945061821448;;;0.807804833330999;44.9347603596827
46382;BME280;66809;52.974;-2.514;2023-02-23T02:22:19;1011.503066940686;;;0.804345183411544;44.90367124824909
46382;BME280;66809;52.974;-2.514;2023-02-23T02:28:40;1011.5886802673169;;;1.1070015829679005;44.720739661357456
46382;BME280;66809;52.974;-2.514;2023-02-23T02:34:48;1011.5487810729139;;;1.0113342570604844;44.861477255492105
46382;BME280;66809;52.974;-2.514;2023-02-23T02:37:12;1011.5510960197633;;;0.9230321649661971;44.8646342918424
46382;BME280;66809;52.974;-2.514;2023-02-23T02:38:34;1011.5508906454345;;;0.8165509044990781;44.91140571181144
46382;BME280;66809;52.974;-2.514;2023-02-23T02:40:30;1011.5539254861212;;;0.7299850142966007;44.9719732556555
46382;BME280;66809;52.974;-2.514;2023-02-23T02:42:31;1011.5612239344166;;;0.6765703524230775;45.02898026925549
46382;BME280;66809;52.974;-2.514;2023-02-23T02:44:31;1011.5708848288895;;;0.6259767491132285;45.085789511885245
46382;BME280;66809;52.974;-2.514;2023-02-23T02:46:28;1011.5810491602135;;;0.5958468298386805;45.15427215740332
46382;BME280;66809;52.974;-2.514;2023-02-23T02:48:33;1011.5921748928971;;;0.5762841707256816;45.218693476719885
46382;BME280;66809;52.974;-2.514;2023-02-23T02:50:32;1011.6036004931631;;;0.5686492110936021;45.251251894222754
46382;BME280;66809;52.974;-2.514;2023-02-23T02:52:29;1011.6152969635906;;;0.5526727597265257;45.249919040876634
46382;BME280;66809;52.974;-2.514;2023-02-23T02:54:29;1011.6271487842032;;;0.5529958590042758;45.266210773794455
46382;BME280;66809;52.974;-2.514;2023-02-23T02:56:26;1011.6402201325462;;;0.5422718585992071;45.278575413913074
46382;BME280;66809;52.974;-2.514;2023-02-23T02:58:27;1011.6538412037754;;;0.537377521461176;45.293408068086954
46382;BME280;66809;52.974;-2.514;2023-02-23T03:00:29;1011.6666968427198;;;0.5210585778666087;45.308291887506805
46382;BME280;66809;52.974;-2.514;2023-02-23T03:02:26;1011.6786917365422;;;0.5031099264290085;45.327405409429254
46382;BME280;66809;52.974;-2.514;2023-02-23T03:04:27;1011.6894252945949;;;0.5022005481888681;45.34089393176077
46382;BME280;66809;52.974;-2.514;2023-02-23T03:06:29;1011.6983258152313;;;0.49465123626152474;45.35350822397435
46382;BME280;66809;52.974;-2.514;2023-02-23T03:08:32;1011.7068513955987;;;0.4999136302942353;45.36099770997686
46382;BME280;66809;52.974;-2.514;2023-02-23T03:10:32;1011.7151644622955;;;0.49354161933974333;45.36765229341385
46382;BME280;66809;52.974;-2.514;2023-02-23T03:12:32;1011.7234391405921;;;0.4745292478028211;45.379029306202604
46382;BME280;66809;52.974;-2.514;2023-02-23T03:14:33;1011.7305114628441;;;0.4591863746996103;45.39871420789556
46382;BME280;66809;52.974;-2.514;2023-02-23T03:16:32;1011.7388937765452;;;0.4489947705489921;45.428261368223254
46382;BME280;66809;52.974;-2.514;2023-02-23T03:18:39;1011.7470418163686;;;0.44367613042713466;45.459691193170755
46382;BME280;66809;52.974;-2.514;2023-02-23T03:20:35;1011.7547197705937;;;0.43574564939079224;45.48120562259947
46382;BME280;66809;52.974;-2.514;2023-02-23T03:22:31;1011.7701540158399;;;0.22835137453300472;45.51601056741349
46382;BME280;66809;52.974;-2.514;2023-02-23T03:24:33;1011.7859995848468;;;0.24600109017805077;45.54835408481044
46382;BME280;66809;52.974;-2.514;2023-02-23T03:26:29;1011.8016087863873;;;0.25500131169790574;45.59607008460383
46382;BME280;66809;52.974;-2.514;2023-02-23T03:28:31;1011.8164206593331;;;0.2638844798486342;45.633779327499376
46382;BME280;66809;52.974;-2.514;2023-02-23T03:30:33;1011.8319664394954;;;0.26793708444997827;45.67224901979441
46382;BME280;66809;52.974;-2.514;2023-02-23T03:32:30;1011.8473247482373;;;0.2793609247258727;45.71430395720653
46382;BME280;66809;52.974;-2.514;2023-02-23T03:34:29;1011.8643086424908;;;0.2772469854297189;45.75121772333254
46382;BME280;66809;52.974;-2.514;2023-02-23T03:36:27;1011.8829453575735;;;0.2793716530728029;45.79362693646518
46382;BME280;66809;52.974;-2.514;2023-02-23T03:38:31;1011.9020149558934;;;0.2913887263960052;45.820852347762454
46382;BME280;66809;52.974;-2.514;2023-02-23T03:40:30;1011.9209283392647;;;0.3061364826044986;45.83519713773405
46382;BME280;66809;52.974;-2.514;2023-02-23T03:42:30;1011.9385208811815;;;0.3186817295301577;45.83710197781589
46382;BME280;66809;52.974;-2.514;2023-02-23T03:44:29;1011.95493436444;;;0.33203782431070905;45.846701756758996
46382;BME280;66809;52.974;-2.514;2023-02-23T03:46:28;1011.9717095942594;;;0.3263443894824222;45.843545290970745
46382;BME280;66809;52.974;-2.514;2023-02-23T03:48:27;1011.9881330399782;;;0.3290817904728904;45.83285760423203
46382;BME280;66809;52.974;-2.514;2023-02-23T03:50:31;1012.0038695385904;;;0.3284948861881497;45.82910381772578
46382;BME280;66809;52.974;-2.514;2023-02-23T03:52:28;1012.0197660375615;;;0.34155816582769577;45.84111056879699
46382;BME280;66809;52.974;-2.514;2023-02-23T03:54:31;1012.0336451775057;;;0.34131005519237795;45.833304598132116
46382;BME280;66809;52.974;-2.514;2023-02-23T03:56:28;1012.0483596295841;;;0.3514922542697596;45.83883810464017
46382;BME280;66809;52.974;-2.514;2023-02-23T03:58:29;1012.0637167968099;;;0.35259250209899007;45.84398585668202
46382;BME280;66809;52.974;-2.514;2023-02-23T04:00:28;1012.079167634969;;;0.35795857762798455;45.84978957779309
46382;BME280;66809;52.974;-2.514;2023-02-23T04:02:27;1012.0952417331669;;;0.36375405317527054;45.844798183926926
46382;BME280;66809;52.974;-2.514;2023-02-23T04:04:27;1012.1116022080375;;;0.3741165614838811;45.84276585552434
46382;BME280;66809;52.974;-2.514;2023-02-23T04:06:28;1012.1303167839168;;;0.38664944796565925;45.82470768321054
46382;BME280;66809;52.974;-2.514;2023-02-23T04:08:30;1012.1508532302413;;;0.38674480653396076;45.81877237056527
46382;BME280;66809;52.974;-2.514;2023-02-23T04:10:27;1012.1707334117019;;;0.40634065922726315;45.804972676424725
46382;BME280;66809;52.974;-2.514;2023-02-23T04:12:31;1012.191381702653;;;0.42682824382712864;45.785076810613404
46382;BME280;66809;52.974;-2.514;2023-02-23T04:14:32;1012.2124941549752;;;0.44051909340660605;45.757801361605566
46382;BME280;66809;52.974;-2.514;2023-02-23T04:16:28;1012.2328829094009;;;0.44667184701184975;45.71651391423616
46382;BME280;66809;52.974;-2.514;2023-02-23T04:18:28;1012.2543665666956;;;0.46259141452850533;45.68424329346953
46382;BME280;66809;52.974;-2.514;2023-02-23T04:20:27;1012.2763442555253;;;0.48834264820458473;45.652546308518914
46382;BME280;66809;52.974;-2.514;2023-02-23T04:22:26;1012.2986077607115;;;0.4964811012501178;45.60962769844959
46382;BME280;66809;52.974;-2.514;2023-02-23T04:24:26;1012.3206155049368;;;0.5021628216409728;45.571572578687324
46382;BME280;66809;52.974;-2.514;2023-02-23T04:26:27;1012.3451331414926;;;0.5265193525588695;45.52817073010537
46382;BME280;66809;52.974;-2.514;2023-02-23T04:28:27;1012.3717438911115;;;0.5419081797935816;45.48154593520217
46382;BME280;66809;52.974;-2.514;2023-02-23T04:30:27;1012.3977228766987;;;0.557834500020435;45.42191504588897
46382;BME280;66809;52.974;-2.514;2023-02-23T04:32:26;1012.4256938931914;;;0.5684014573052949;45.368397530932654
46382;BME280;66809;52.974;-2.514;2023-02-23T04:34:26;1012.4532334268594;;;0.5855093083658371;45.318401116076735
46382;BME280;66809;52.974;-2.514;2023-02-23T04:36:27;1012.4807933564229;;;0.596905637152096;45.25770570511232
46382;BME280;66809;52.974;-2.514;2023-02-23T04:38:26;1012.5100662558689;;;0.6086226389202659;45.19196326238806
46382;BME280;66809;52.974;-2.514;2023-02-23T04:40:27;1012.5396349147512;;;0.6176445169141686;45.14061819774759
46382;BME280;66809;52.974;-2.514;2023-02-23T04:42:26;1012.5698886401198;;;0.6226621295130882;45.1063905067274
46382;BME280;66809;52.974;-2.514;2023-02-23T04:44:26;1012.6000538908105;;;0.6290929420902338;45.047467190298285
46382;BME280;66809;52.974;-2.514;2023-02-23T04:46:26;1012.6296608913445;;;0.6529784336447366;44.99883544904159
46382;BME280;66809;52.974;-2.514;2023-02-23T04:48:26;1012.6600322285684;;;0.6641558603558224;44.94569217211962
46382;BME280;66809;52.974;-2.514;2023-02-23T04:50:26;1012.6908282023561;;;0.6659279699161134;44.89786480905845
46382;BME280;66809;52.974;-2.514;2023-02-23T04:52:26;1012.7213609645344;;;0.6615570774745679;44.849660122169844
46382;BME280;66809;52.974;-2.514;2023-02-23T04:54:26;1012.7542158295638;;;0.648633414730092;44.81978696438743
46382;BME280;66809;52.974;-2.514;2023-02-23T04:56:26;1012.7855498374346;;;0.6387101156732934;44.78702346276434
46382;BME280;66809;52.974;-2.514;2023-02-23T04:58:26;1012.8140399878326;;;0.6314242236264922;44.74896275750663
46382;BME280;66809;52.974;-2.514;2023-02-23T05:00:26;1012.8423155330871;;;0.6180221791855182;44.71968065787873
46382;BME280;66809;52.974;-2.514;2023-02-23T05:02:26;1012.8694116325019;;;0.6155637966423348;44.68639314255925
46382;BME280;66809;52.974;-2.514;2023-02-23T05:04:27;1012.8963068467605;;;0.5886172327985808;44.64460572240877
46382;BME280;66809;52.974;-2.514;2023-02-23T05:06:26;1012.921635218896;;;0.5638679225081921;44.62731354821842
46382;BME280;66809;52.974;-2.514;2023-02-23T05:08:26;1012.9449021314304;;;0.5420340117503223;44.606152071957574
46382;BME280;66809;52.974;-2.514;2023-02-23T05:10:26;1012.9688777923733;;;0.506391434532853;44.58495594440598
46382;BME280;66809;52.974;-2.514;2023-02-23T05:12:28;1012.9935541032179;;;0.47688148879009;44.56816365803835
46382;BME280;66809;52.974;-2.514;2023-02-23T05:14:27;1013.0185020089207;;;0.4487632444897282;44.55669332751588
46382;BME280;66809;52.974;-2.514;2023-02-23T05:16:26;1013.0423021349759;;;0.4311088323314383;44.548296234898864
46382;BME280;66809;52.974;-2.514;2023-02-23T05:18:26;1013.0659736346871;;;0.39682543821208566;44.516252569426754
46382;BME280;66809;52.974;-2.514;2023-02-23T05:20:26;1013.0910247837571;;;0.3573109049372931;44.48721495780271
46382;BME280;66809;52.974;-2.514;2023-02-23T05:22:26;1013.1154586379162;;;0.3229976334433457;44.47799596158971
46382;BME280;66809;52.974;-2.514;2023-02-23T05:24:26;1013.1415593905286;;;0.29036011319219573;44.467924432571934
46382;BME280;66809;52.974;-2.514;2023-02-23T05:26:26;1013.1661003894243;;;0.25082544162169923;44.44997076409076
46382;BME280;66809;52.974;-2.514;2023-02-23T05:28:26;1013.1909944497297;;;0.2220892906681075;44.43354074983504
46382;BME280;66809;52.974;-2.514;2023-02-23T05:30:27;1013.2161069874807;;;0.1907722563768632;44.415343067014724
46382;BME280;66809;52.974;-2.514;2023-02-23T05:32:26;1013.239671894958;;;0.16314654312579313;44.390241642228936
46382;BME280;66809;52.974;-2.514;2023-02-23T05:34:26;1013.2628948696497;;;0.13496478754805666;44.362633975028444
46382;BME280;66809;52.974;-2.514;2023-02-23T05:36:26;1013.2836466179768;;;0.10869513569711467;44.329359421962536
46382;BME280;66809;52.974;-2.514;2023-02-23T05:38:26;1013.3035740559358;;;0.08843046714687633;44.29572756335143
46382;BME280;66809;52.974;-2.514;2023-02-23T05:40:26;1013.322819632123;;;0.060434662705026614;44.2575692775714
46382;BME280;66809;52.974;-2.514;2023-02-23T05:42:26;1013.3412015039693;;;0.03413005827325431;44.21921839975809
46382;BME280;66809;52.974;-2.514;2023-02-23T05:44:27;1013.3584215708506;;;0.0015894195548888093;44.172517973590054
46382;BME280;66809;52.974;-2.514;2023-02-23T05:46:26;1013.374773873669;;;-0.024664809922174808;44.13740974846974
46382;BME280;66809;52.974;-2.514;2023-02-23T05:48:26;1013.389726447571;;;-0.04749493885256985;44.10102217901085
46382;BME280;66809;52.974;-2.514;2023-02-23T05:50:26;1013.4039453412123;;;-0.06729010951939017;44.05640270109959
46382;BME280;66809;52.974;-2.514;2023-02-23T05:52:26;1013.417929361585;;;-0.09307112498339869;44.009980617375696
46382;BME280;66809;52.974;-2.514;2023-02-23T05:54:26;1013.431845205832;;;-0.10620953728788635;43.961090621509214
46382;BME280;66809;52.974;-2.514;2023-02-23T05:56:26;1013.4456236293173;;;-0.13711857591366566;43.9010637131902
46382;BME280;66809;52.974;-2.514;2023-02-23T05:58:26;1013.4604759443101;;;-0.15385903633233902;43.84893459006351
46382;BME280;66809;52.974;-2.514;2023-02-23T06:00:26;1013.4752799966076;;;-0.16262895350741668;43.794688670188265
46382;BME280;66809;52.974;-2.514;2023-02-23T06:02:26;1013.49026604122;;;-0.19273846997158636;43.75212355700098
46382;BME280;66809;52.974;-2.514;2023-02-23T06:04:26;1013.5063083567703;;;-0.21912941236540834;43.71791852445373
46382;BME280;66809;52.974;-2.514;2023-02-23T06:06:26;1013.5224006994939;;;-0.2410746682817108;43.68017125298796
46382;BME280;66809;52.974;-2.514;2023-02-23T06:08:26;1013.5398943786483;;;-0.27401821410457283;43.64114758921327
46382;BME280;66809;52.974;-2.514;2023-02-23T06:10:26;1013.5550772639548;;;-0.295209669004601;43.61240435085883
46382;BME280;66809;52.974;-2.514;2023-02-23T06:12:26;1013.5687850921743;;;-0.30867406369684186;43.58781383574942
46382;BME280;66809;52.974;-2.514;2023-02-23T06:14:26;1013.5836232161522;;;-0.3226420763838617;43.55627756301486
46382;BME280;66809;52.974;-2.514;2023-02-23T06:16:27;1013.6001273180453;;;-0.3491297062463414;43.520954880243266
46382;BME280;66809;52.974;-2.514;2023-02-23T06:18:27;1013.6164423430884;;;-0.3601461292966721;43.495524894002735
46382;BME280;66809;52.974;-2.514;2023-02-23T06:20:28;1013.6318565534109;;;-0.37777926070556783;43.469364008408654
46382;BME280;66809;52.974;-2.514;2023-02-23T06:22:26;1013.6474208041619;;;-0.39493360012549517;43.44032914047785
46382;BME280;66809;52.974;-2.514;2023-02-23T06:24:27;1013.660368933964;;;-0.4047345963017493;43.423665356864944
46382;BME280;66809;52.974;-2.514;2023-02-23T06:26:27;1013.6740624025455;;;-0.4163170572859274;43.38541950662509
46382;BME280;66809;52.974;-2.514;2023-02-23T06:28:27;1013.6881674076138;;;-0.4279576763645572;43.36054567997307
46382;BME280;66809;52.974;-2.514;2023-02-23T06:30:26;1013.7022291581897;;;-0.4404709231966957;43.34488550366049
46382;BME280;66809;52.974;-2.514;2023-02-23T06:32:26;1013.7148143775927;;;-0.45649783890718737;43.3336157240848
46382;BME280;66809;52.974;-2.514;2023-02-23T06:34:27;1013.7277226953594;;;-0.4801359748077141;43.31694594197794
46382;BME280;66809;52.974;-2.514;2023-02-23T06:36:26;1013.7431994292018;;;-0.4995731534164577;43.30405694458796
46382;BME280;66809;52.974;-2.514;2023-02-23T06:38:26;1013.758409788159;;;-0.5228097291952157;43.30161273763833
46382;BME280;66809;52.974;-2.514;2023-02-23T06:40:26;1013.7736316954431;;;-0.5444080822041444;43.29710824148163
46382;BME280;66809;52.974;-2.514;2023-02-23T06:42:26;1013.7897698927429;;;-0.5679293078944909;43.290758271452916
46382;BME280;66809;52.974;-2.514;2023-02-23T06:44:26;1013.8071559425433;;;-0.5749236431039297;43.31423402286585
46382;BME280;66809;52.974;-2.514;2023-02-23T06:46:26;1013.8245570741904;;;-0.5842197134890162;43.30999909347448
46382;BME280;66809;52.974;-2.514;2023-02-23T06:48:26;1013.8427405981741;;;-0.5996597587523873;43.303358001206135
46382;BME280;66809;52.974;-2.514;2023-02-23T06:50:27;1013.8635421861707;;;-0.6084632579905205;43.31559973323927
46382;BME280;66809;52.974;-2.514;2023-02-23T06:52:27;1013.8838846634303;;;-0.6106826071599988;43.3172953759902
46382;BME280;66809;52.974;-2.514;2023-02-23T06:54:26;1013.9035849562182;;;-0.606260723209061;43.31739555685888
46382;BME280;66809;52.974;-2.514;2023-02-23T06:56:26;1013.9239252217042;;;-0.595931839704562;43.31522010175239
46382;BME280;66809;52.974;-2.514;2023-02-23T06:58:27;1013.9432915011923;;;-0.5927209974277275;43.30096900704491
46382;BME280;66809;52.974;-2.514;2023-02-23T07:00:26;1013.9634305320434;;;-0.5868304965275413;43.27377035833521
46382;BME280;66809;52.974;-2.514;2023-02-23T07:02:26;1013.9854852642518;;;-0.5627753325461015;43.23990521691451
46382;BME280;66809;52.974;-2.514;2023-02-23T07:04:31;1014.0073224544309;;;-0.5276194708301539;43.19861844943906
46382;BME280;66809;52.974;-2.514;2023-02-23T07:06:26;1014.0309101027998;;;-0.49255021158244844;43.14180367727822
46382;BME280;66809;52.974;-2.514;2023-02-23T07:08:26;1014.0536782530139;;;-0.44438988803432344;43.07425599136749
46382;BME280;66809;52.974;-2.514;2023-02-23T07:10:26;1014.0794935587385;;;-0.40138305905243526;43.00743417219755
46382;BME280;66809;52.974;-2.514;2023-02-23T07:12:26;1014.1056146522509;;;-0.3618915375336763;42.910428824759606
46382;BME280;66809;52.974;-2.514;2023-02-23T07:14:26;1014.132223288431;;;-0.311999983760216;42.80687148982029
46382;BME280;66809;52.974;-2.514;2023-02-23T07:16:26;1014.1590200579075;;;-0.2692711463312463;42.70934893055547